sensor_id;sensor_type;location;lat;lon;timestamp;P1;durP1;ratioP1;P2;durP2;ratioP2
34711;SDS011;20941;42.408;25.634;2023-07-16T00:01:58;8.30;;;4.00;;
34711;SDS011;20941;42.408;25.634;2023-07-16T00:04:23;6.57;;;3.72;;
34711;SDS011;20941;42.408;25.634;2023-07-16T00:06:53;4.28;;;3.53;;
34711;SDS011;20941;42.408;25.634;2023-07-16T00:09:22;6.88;;;3.70;;
34711;SDS011;20941;42.408;25.634;2023-07-16T00:11:48;4.45;;;3.53;;
34711;SDS011;20941;42.408;25.634;2023-07-16T00:14:21;8.35;;;4.25;;
34711;SDS011;20941;42.408;25.634;2023-07-16T00:16:50;6.95;;;4.05;;
34711;SDS011;20941;42.408;25.634;2023-07-16T00:19:17;5.85;;;3.95;;
34711;SDS011;20941;42.408;25.634;2023-07-16T00:21:42;3.95;;;3.60;;
34711;SDS011;20941;42.408;25.634;2023-07-16T00:24:08;8.60;;;4.10;;
34711;SDS011;20941;42.408;25.634;2023-07-16T00:26:35;6.63;;;3.63;;
34711;SDS011;20941;42.408;25.634;2023-07-16T00:29:02;4.20;;;3.80;;
34711;SDS011;20941;42.408;25.634;2023-07-16T00:31:30;7.40;;;4.00;;
34711;SDS011;20941;42.408;25.634;2023-07-16T00:33:57;5.20;;;3.90;;
34711;SDS011;20941;42.408;25.634;2023-07-16T00:36:22;5.13;;;3.70;;
34711;SDS011;20941;42.408;25.634;2023-07-16T00:38:48;4.18;;;3.50;;
34711;SDS011;20941;42.408;25.634;2023-07-16T00:41:16;3.80;;;3.50;;
34711;SDS011;20941;42.408;25.634;2023-07-16T00:43:43;7.45;;;4.20;;
34711;SDS011;20941;42.408;25.634;2023-07-16T00:46:09;5.15;;;3.97;;
34711;SDS011;20941;42.408;25.634;2023-07-16T00:48:35;4.30;;;3.90;;
34711;SDS011;20941;42.408;25.634;2023-07-16T00:51:02;7.53;;;4.10;;
34711;SDS011;20941;42.408;25.634;2023-07-16T00:53:28;7.25;;;4.13;;
34711;SDS011;20941;42.408;25.634;2023-07-16T00:55:55;8.85;;;4.28;;
34711;SDS011;20941;42.408;25.634;2023-07-16T00:58:22;7.93;;;4.25;;
34711;SDS011;20941;42.408;25.634;2023-07-16T01:00:48;7.15;;;3.97;;
34711;SDS011;20941;42.408;25.634;2023-07-16T01:03:13;6.07;;;4.13;;
34711;SDS011;20941;42.408;25.634;2023-07-16T01:08:40;5.38;;;4.03;;
34711;SDS011;20941;42.408;25.634;2023-07-16T01:11:10;6.55;;;4.13;;
34711;SDS011;20941;42.408;25.634;2023-07-16T01:13:37;5.40;;;3.72;;
34711;SDS011;20941;42.408;25.634;2023-07-16T01:16:03;7.63;;;3.67;;
34711;SDS011;20941;42.408;25.634;2023-07-16T01:18:29;4.15;;;3.80;;
34711;SDS011;20941;42.408;25.634;2023-07-16T01:20:58;6.43;;;4.18;;
34711;SDS011;20941;42.408;25.634;2023-07-16T01:26:36;8.23;;;4.10;;
34711;SDS011;20941;42.408;25.634;2023-07-16T01:31:22;5.78;;;4.15;;
34711;SDS011;20941;42.408;25.634;2023-07-16T01:33:48;5.30;;;4.28;;
34711;SDS011;20941;42.408;25.634;2023-07-16T01:36:14;6.28;;;4.00;;
34711;SDS011;20941;42.408;25.634;2023-07-16T01:38:42;7.00;;;4.68;;
34711;SDS011;20941;42.408;25.634;2023-07-16T01:41:09;8.45;;;4.72;;
34711;SDS011;20941;42.408;25.634;2023-07-16T01:43:35;5.75;;;4.25;;
34711;SDS011;20941;42.408;25.634;2023-07-16T01:46:03;8.73;;;4.75;;
34711;SDS011;20941;42.408;25.634;2023-07-16T01:48:35;8.65;;;5.38;;
34711;SDS011;20941;42.408;25.634;2023-07-16T01:51:19;8.38;;;5.18;;
34711;SDS011;20941;42.408;25.634;2023-07-16T01:53:46;5.75;;;4.68;;
34711;SDS011;20941;42.408;25.634;2023-07-16T01:56:12;12.20;;;4.78;;
34711;SDS011;20941;42.408;25.634;2023-07-16T01:58:41;6.45;;;4.45;;
34711;SDS011;20941;42.408;25.634;2023-07-16T02:01:06;7.95;;;4.78;;
34711;SDS011;20941;42.408;25.634;2023-07-16T02:03:32;6.13;;;5.15;;
34711;SDS011;20941;42.408;25.634;2023-07-16T02:05:57;11.27;;;4.60;;
34711;SDS011;20941;42.408;25.634;2023-07-16T02:08:24;8.20;;;4.68;;
34711;SDS011;20941;42.408;25.634;2023-07-16T02:10:51;6.53;;;5.03;;
34711;SDS011;20941;42.408;25.634;2023-07-16T02:13:16;9.55;;;4.88;;
34711;SDS011;20941;42.408;25.634;2023-07-16T02:15:52;8.20;;;5.55;;
34711;SDS011;20941;42.408;25.634;2023-07-16T02:18:22;9.20;;;5.43;;
34711;SDS011;20941;42.408;25.634;2023-07-16T02:20:50;9.10;;;5.60;;
34711;SDS011;20941;42.408;25.634;2023-07-16T02:23:15;8.50;;;5.15;;
34711;SDS011;20941;42.408;25.634;2023-07-16T02:25:40;9.23;;;5.95;;
34711;SDS011;20941;42.408;25.634;2023-07-16T02:28:07;7.07;;;5.45;;
34711;SDS011;20941;42.408;25.634;2023-07-16T02:30:34;7.45;;;5.88;;
34711;SDS011;20941;42.408;25.634;2023-07-16T02:33:01;7.13;;;5.57;;
34711;SDS011;20941;42.408;25.634;2023-07-16T02:35:27;8.10;;;5.38;;
34711;SDS011;20941;42.408;25.634;2023-07-16T02:37:56;7.15;;;5.20;;
34711;SDS011;20941;42.408;25.634;2023-07-16T02:40:21;7.10;;;5.30;;
34711;SDS011;20941;42.408;25.634;2023-07-16T02:42:46;10.20;;;5.25;;
34711;SDS011;20941;42.408;25.634;2023-07-16T02:45:12;8.57;;;5.35;;
34711;SDS011;20941;42.408;25.634;2023-07-16T02:47:38;9.23;;;5.68;;
34711;SDS011;20941;42.408;25.634;2023-07-16T02:50:03;7.72;;;5.63;;
34711;SDS011;20941;42.408;25.634;2023-07-16T02:52:30;8.75;;;5.78;;
34711;SDS011;20941;42.408;25.634;2023-07-16T02:54:55;11.65;;;5.00;;
34711;SDS011;20941;42.408;25.634;2023-07-16T02:57:21;9.13;;;5.80;;
34711;SDS011;20941;42.408;25.634;2023-07-16T02:59:47;12.73;;;5.70;;
34711;SDS011;20941;42.408;25.634;2023-07-16T03:02:13;13.00;;;5.93;;
34711;SDS011;20941;42.408;25.634;2023-07-16T03:04:41;7.00;;;5.45;;
34711;SDS011;20941;42.408;25.634;2023-07-16T03:07:06;6.32;;;5.38;;
34711;SDS011;20941;42.408;25.634;2023-07-16T03:09:33;9.18;;;5.55;;
34711;SDS011;20941;42.408;25.634;2023-07-16T03:11:58;8.45;;;5.40;;
34711;SDS011;20941;42.408;25.634;2023-07-16T03:14:24;9.65;;;5.43;;
34711;SDS011;20941;42.408;25.634;2023-07-16T03:16:51;6.93;;;4.70;;
34711;SDS011;20941;42.408;25.634;2023-07-16T03:19:18;7.57;;;5.30;;
34711;SDS011;20941;42.408;25.634;2023-07-16T03:21:48;9.05;;;5.20;;
34711;SDS011;20941;42.408;25.634;2023-07-16T03:24:15;8.00;;;5.03;;
34711;SDS011;20941;42.408;25.634;2023-07-16T03:26:41;8.02;;;5.20;;
34711;SDS011;20941;42.408;25.634;2023-07-16T03:29:06;7.07;;;5.00;;
34711;SDS011;20941;42.408;25.634;2023-07-16T03:31:32;6.53;;;4.75;;
34711;SDS011;20941;42.408;25.634;2023-07-16T03:33:59;6.15;;;4.15;;
34711;SDS011;20941;42.408;25.634;2023-07-16T03:36:27;5.07;;;4.65;;
34711;SDS011;20941;42.408;25.634;2023-07-16T03:38:53;7.18;;;4.45;;
34711;SDS011;20941;42.408;25.634;2023-07-16T03:41:18;5.53;;;4.13;;
34711;SDS011;20941;42.408;25.634;2023-07-16T03:43:44;8.05;;;4.63;;
34711;SDS011;20941;42.408;25.634;2023-07-16T03:46:10;8.63;;;4.40;;
34711;SDS011;20941;42.408;25.634;2023-07-16T03:48:35;7.47;;;4.90;;
34711;SDS011;20941;42.408;25.634;2023-07-16T03:51:02;7.90;;;5.35;;
34711;SDS011;20941;42.408;25.634;2023-07-16T03:53:27;8.85;;;5.30;;
34711;SDS011;20941;42.408;25.634;2023-07-16T03:55:53;7.85;;;5.03;;
34711;SDS011;20941;42.408;25.634;2023-07-16T03:58:19;8.70;;;5.25;;
34711;SDS011;20941;42.408;25.634;2023-07-16T04:00:45;9.45;;;5.32;;
34711;SDS011;20941;42.408;25.634;2023-07-16T04:03:13;6.63;;;4.93;;
34711;SDS011;20941;42.408;25.634;2023-07-16T04:05:40;7.65;;;5.00;;
34711;SDS011;20941;42.408;25.634;2023-07-16T04:08:07;10.07;;;4.95;;
34711;SDS011;20941;42.408;25.634;2023-07-16T04:10:34;10.55;;;4.70;;
34711;SDS011;20941;42.408;25.634;2023-07-16T04:12:59;8.45;;;4.60;;
34711;SDS011;20941;42.408;25.634;2023-07-16T04:15:26;11.10;;;4.20;;
34711;SDS011;20941;42.408;25.634;2023-07-16T04:17:53;4.78;;;4.00;;
34711;SDS011;20941;42.408;25.634;2023-07-16T04:20:18;9.23;;;4.55;;
34711;SDS011;20941;42.408;25.634;2023-07-16T04:22:48;8.55;;;4.35;;
34711;SDS011;20941;42.408;25.634;2023-07-16T04:25:17;7.95;;;4.15;;
34711;SDS011;20941;42.408;25.634;2023-07-16T04:27:45;4.93;;;4.10;;
34711;SDS011;20941;42.408;25.634;2023-07-16T04:30:12;6.85;;;4.55;;
34711;SDS011;20941;42.408;25.634;2023-07-16T04:32:49;5.97;;;4.38;;
34711;SDS011;20941;42.408;25.634;2023-07-16T04:35:18;7.47;;;3.85;;
34711;SDS011;20941;42.408;25.634;2023-07-16T04:37:43;8.50;;;4.43;;
34711;SDS011;20941;42.408;25.634;2023-07-16T04:40:11;9.27;;;4.15;;
34711;SDS011;20941;42.408;25.634;2023-07-16T04:42:36;5.88;;;3.92;;
34711;SDS011;20941;42.408;25.634;2023-07-16T04:45:05;5.75;;;3.78;;
34711;SDS011;20941;42.408;25.634;2023-07-16T04:47:33;4.95;;;4.10;;
34711;SDS011;20941;42.408;25.634;2023-07-16T04:49:58;5.00;;;3.75;;
34711;SDS011;20941;42.408;25.634;2023-07-16T04:52:24;6.60;;;3.80;;
34711;SDS011;20941;42.408;25.634;2023-07-16T04:54:51;7.28;;;3.90;;
34711;SDS011;20941;42.408;25.634;2023-07-16T04:57:20;7.13;;;4.38;;
34711;SDS011;20941;42.408;25.634;2023-07-16T04:59:45;7.53;;;4.55;;
34711;SDS011;20941;42.408;25.634;2023-07-16T05:02:11;5.25;;;3.92;;
34711;SDS011;20941;42.408;25.634;2023-07-16T05:04:37;4.65;;;3.70;;
34711;SDS011;20941;42.408;25.634;2023-07-16T05:07:02;4.13;;;3.75;;
34711;SDS011;20941;42.408;25.634;2023-07-16T05:09:29;9.18;;;3.78;;
34711;SDS011;20941;42.408;25.634;2023-07-16T05:11:56;6.60;;;3.80;;
34711;SDS011;20941;42.408;25.634;2023-07-16T05:14:27;4.90;;;3.53;;
34711;SDS011;20941;42.408;25.634;2023-07-16T05:16:53;4.80;;;3.65;;
34711;SDS011;20941;42.408;25.634;2023-07-16T05:19:20;7.28;;;4.10;;
34711;SDS011;20941;42.408;25.634;2023-07-16T05:21:46;5.40;;;4.10;;
34711;SDS011;20941;42.408;25.634;2023-07-16T05:24:12;8.98;;;3.90;;
34711;SDS011;20941;42.408;25.634;2023-07-16T05:26:39;6.40;;;3.63;;
34711;SDS011;20941;42.408;25.634;2023-07-16T05:29:05;5.43;;;3.50;;
34711;SDS011;20941;42.408;25.634;2023-07-16T05:31:31;6.70;;;3.90;;
34711;SDS011;20941;42.408;25.634;2023-07-16T05:33:56;4.43;;;4.00;;
34711;SDS011;20941;42.408;25.634;2023-07-16T05:36:22;5.15;;;3.50;;
34711;SDS011;20941;42.408;25.634;2023-07-16T05:38:47;5.80;;;3.47;;
34711;SDS011;20941;42.408;25.634;2023-07-16T05:41:14;9.27;;;3.65;;
34711;SDS011;20941;42.408;25.634;2023-07-16T05:43:40;7.45;;;3.70;;
34711;SDS011;20941;42.408;25.634;2023-07-16T05:46:05;8.18;;;3.60;;
34711;SDS011;20941;42.408;25.634;2023-07-16T05:48:31;5.75;;;3.83;;
34711;SDS011;20941;42.408;25.634;2023-07-16T05:51:02;5.72;;;3.33;;
34711;SDS011;20941;42.408;25.634;2023-07-16T05:53:29;3.97;;;3.58;;
34711;SDS011;20941;42.408;25.634;2023-07-16T05:55:54;5.13;;;3.25;;
34711;SDS011;20941;42.408;25.634;2023-07-16T05:58:20;5.82;;;3.33;;
34711;SDS011;20941;42.408;25.634;2023-07-16T06:00:48;7.00;;;3.28;;
34711;SDS011;20941;42.408;25.634;2023-07-16T06:03:13;4.05;;;3.00;;
34711;SDS011;20941;42.408;25.634;2023-07-16T06:05:43;4.15;;;3.40;;
34711;SDS011;20941;42.408;25.634;2023-07-16T06:08:10;6.88;;;3.25;;
34711;SDS011;20941;42.408;25.634;2023-07-16T06:10:37;5.63;;;3.40;;
34711;SDS011;20941;42.408;25.634;2023-07-16T06:13:05;5.13;;;3.28;;
34711;SDS011;20941;42.408;25.634;2023-07-16T06:15:32;5.28;;;3.30;;
34711;SDS011;20941;42.408;25.634;2023-07-16T06:17:58;6.40;;;3.85;;
34711;SDS011;20941;42.408;25.634;2023-07-16T06:20:23;4.22;;;3.80;;
34711;SDS011;20941;42.408;25.634;2023-07-16T06:22:50;5.25;;;3.58;;
34711;SDS011;20941;42.408;25.634;2023-07-16T06:25:17;5.95;;;3.17;;
34711;SDS011;20941;42.408;25.634;2023-07-16T06:27:43;5.70;;;3.53;;
34711;SDS011;20941;42.408;25.634;2023-07-16T06:30:11;3.33;;;3.10;;
34711;SDS011;20941;42.408;25.634;2023-07-16T06:32:36;5.00;;;3.70;;
34711;SDS011;20941;42.408;25.634;2023-07-16T06:35:07;3.90;;;3.55;;
34711;SDS011;20941;42.408;25.634;2023-07-16T06:37:33;4.25;;;3.67;;
34711;SDS011;20941;42.408;25.634;2023-07-16T06:40:05;3.92;;;3.60;;
34711;SDS011;20941;42.408;25.634;2023-07-16T06:42:36;4.80;;;3.70;;
34711;SDS011;20941;42.408;25.634;2023-07-16T06:45:01;4.63;;;3.85;;
34711;SDS011;20941;42.408;25.634;2023-07-16T06:47:28;6.93;;;3.83;;
34711;SDS011;20941;42.408;25.634;2023-07-16T06:49:58;7.95;;;3.83;;
34711;SDS011;20941;42.408;25.634;2023-07-16T06:52:31;4.13;;;3.70;;
34711;SDS011;20941;42.408;25.634;2023-07-16T06:54:59;6.10;;;3.78;;
34711;SDS011;20941;42.408;25.634;2023-07-16T06:57:24;5.65;;;3.90;;
34711;SDS011;20941;42.408;25.634;2023-07-16T06:59:51;9.90;;;4.20;;
34711;SDS011;20941;42.408;25.634;2023-07-16T07:02:20;5.03;;;3.30;;
34711;SDS011;20941;42.408;25.634;2023-07-16T07:04:52;5.00;;;3.67;;
34711;SDS011;20941;42.408;25.634;2023-07-16T07:17:39;4.97;;;3.78;;
34711;SDS011;20941;42.408;25.634;2023-07-16T07:20:04;4.38;;;3.63;;
34711;SDS011;20941;42.408;25.634;2023-07-16T07:22:30;6.22;;;4.03;;
34711;SDS011;20941;42.408;25.634;2023-07-16T07:50:49;15.25;;;5.95;;
34711;SDS011;20941;42.408;25.634;2023-07-16T07:53:27;7.90;;;4.80;;
34711;SDS011;20941;42.408;25.634;2023-07-16T08:26:39;5.40;;;4.55;;
34711;SDS011;20941;42.408;25.634;2023-07-16T08:29:05;5.78;;;4.55;;
34711;SDS011;20941;42.408;25.634;2023-07-16T08:32:13;6.70;;;4.57;;
34711;SDS011;20941;42.408;25.634;2023-07-16T08:48:46;5.32;;;4.78;;
34711;SDS011;20941;42.408;25.634;2023-07-16T08:51:14;5.10;;;4.60;;
34711;SDS011;20941;42.408;25.634;2023-07-16T08:53:40;6.07;;;4.78;;
34711;SDS011;20941;42.408;25.634;2023-07-16T08:56:05;5.40;;;4.80;;
34711;SDS011;20941;42.408;25.634;2023-07-16T08:58:31;6.85;;;4.50;;
34711;SDS011;20941;42.408;25.634;2023-07-16T09:00:56;8.25;;;4.70;;
34711;SDS011;20941;42.408;25.634;2023-07-16T09:09:36;6.07;;;4.07;;
34711;SDS011;20941;42.408;25.634;2023-07-16T09:12:01;5.07;;;4.05;;
34711;SDS011;20941;42.408;25.634;2023-07-16T09:14:27;5.03;;;4.45;;
34711;SDS011;20941;42.408;25.634;2023-07-16T09:16:52;5.05;;;4.53;;
34711;SDS011;20941;42.408;25.634;2023-07-16T09:19:18;5.75;;;4.18;;
34711;SDS011;20941;42.408;25.634;2023-07-16T09:21:46;5.63;;;4.43;;
34711;SDS011;20941;42.408;25.634;2023-07-16T09:24:12;5.68;;;4.38;;
34711;SDS011;20941;42.408;25.634;2023-07-16T09:26:38;4.72;;;4.00;;
34711;SDS011;20941;42.408;25.634;2023-07-16T09:29:06;7.72;;;4.28;;
34711;SDS011;20941;42.408;25.634;2023-07-16T09:31:33;6.90;;;4.15;;
34711;SDS011;20941;42.408;25.634;2023-07-16T09:33:58;5.75;;;4.90;;
34711;SDS011;20941;42.408;25.634;2023-07-16T09:36:26;5.43;;;3.90;;
34711;SDS011;20941;42.408;25.634;2023-07-16T09:38:53;4.63;;;3.95;;
34711;SDS011;20941;42.408;25.634;2023-07-16T09:41:19;6.50;;;3.95;;
34711;SDS011;20941;42.408;25.634;2023-07-16T09:43:44;4.57;;;4.07;;
34711;SDS011;20941;42.408;25.634;2023-07-16T09:46:09;5.28;;;4.78;;
34711;SDS011;20941;42.408;25.634;2023-07-16T09:48:38;4.78;;;4.20;;
34711;SDS011;20941;42.408;25.634;2023-07-16T09:51:03;5.50;;;4.43;;
34711;SDS011;20941;42.408;25.634;2023-07-16T09:53:30;5.47;;;3.95;;
34711;SDS011;20941;42.408;25.634;2023-07-16T09:55:56;6.45;;;4.63;;
34711;SDS011;20941;42.408;25.634;2023-07-16T09:58:22;7.82;;;4.30;;
34711;SDS011;20941;42.408;25.634;2023-07-16T10:00:48;5.55;;;4.40;;
34711;SDS011;20941;42.408;25.634;2023-07-16T10:03:14;6.28;;;4.18;;
34711;SDS011;20941;42.408;25.634;2023-07-16T10:05:40;10.15;;;4.57;;
34711;SDS011;20941;42.408;25.634;2023-07-16T10:08:14;7.57;;;4.95;;
34711;SDS011;20941;42.408;25.634;2023-07-16T10:10:41;7.63;;;4.43;;
34711;SDS011;20941;42.408;25.634;2023-07-16T10:13:08;5.07;;;3.80;;
34711;SDS011;20941;42.408;25.634;2023-07-16T10:15:34;7.22;;;4.47;;
34711;SDS011;20941;42.408;25.634;2023-07-16T10:17:59;6.43;;;3.97;;
34711;SDS011;20941;42.408;25.634;2023-07-16T10:20:32;5.32;;;4.13;;
34711;SDS011;20941;42.408;25.634;2023-07-16T10:22:58;8.27;;;4.82;;
34711;SDS011;20941;42.408;25.634;2023-07-16T10:25:25;6.53;;;4.43;;
34711;SDS011;20941;42.408;25.634;2023-07-16T10:27:51;5.70;;;4.47;;
34711;SDS011;20941;42.408;25.634;2023-07-16T10:30:17;4.95;;;4.30;;
34711;SDS011;20941;42.408;25.634;2023-07-16T10:32:42;4.72;;;4.18;;
34711;SDS011;20941;42.408;25.634;2023-07-16T10:35:08;6.20;;;4.20;;
34711;SDS011;20941;42.408;25.634;2023-07-16T10:37:34;7.47;;;4.43;;
34711;SDS011;20941;42.408;25.634;2023-07-16T10:40:00;7.05;;;4.30;;
34711;SDS011;20941;42.408;25.634;2023-07-16T10:42:26;4.97;;;4.43;;
34711;SDS011;20941;42.408;25.634;2023-07-16T10:44:53;8.25;;;4.70;;
34711;SDS011;20941;42.408;25.634;2023-07-16T10:47:29;10.57;;;4.30;;
34711;SDS011;20941;42.408;25.634;2023-07-16T10:49:54;6.43;;;4.30;;
34711;SDS011;20941;42.408;25.634;2023-07-16T10:52:23;6.97;;;4.63;;
34711;SDS011;20941;42.408;25.634;2023-07-16T10:54:49;5.38;;;4.22;;
34711;SDS011;20941;42.408;25.634;2023-07-16T10:57:22;5.82;;;4.32;;
34711;SDS011;20941;42.408;25.634;2023-07-16T10:59:48;8.43;;;4.68;;
34711;SDS011;20941;42.408;25.634;2023-07-16T11:02:15;7.80;;;5.05;;
34711;SDS011;20941;42.408;25.634;2023-07-16T11:04:41;5.00;;;4.60;;
34711;SDS011;20941;42.408;25.634;2023-07-16T11:07:07;6.25;;;4.30;;
34711;SDS011;20941;42.408;25.634;2023-07-16T11:09:42;8.60;;;4.75;;
34711;SDS011;20941;42.408;25.634;2023-07-16T11:12:09;9.50;;;4.47;;
34711;SDS011;20941;42.408;25.634;2023-07-16T11:14:34;4.65;;;4.20;;
34711;SDS011;20941;42.408;25.634;2023-07-16T11:17:03;7.63;;;5.03;;
34711;SDS011;20941;42.408;25.634;2023-07-16T11:19:30;7.35;;;4.60;;
34711;SDS011;20941;42.408;25.634;2023-07-16T11:21:56;8.43;;;4.43;;
34711;SDS011;20941;42.408;25.634;2023-07-16T11:24:21;9.43;;;4.75;;
34711;SDS011;20941;42.408;25.634;2023-07-16T11:26:56;9.30;;;4.13;;
34711;SDS011;20941;42.408;25.634;2023-07-16T11:29:24;6.07;;;4.30;;
34711;SDS011;20941;42.408;25.634;2023-07-16T11:31:50;6.22;;;4.53;;
34711;SDS011;20941;42.408;25.634;2023-07-16T11:34:16;7.70;;;4.47;;
34711;SDS011;20941;42.408;25.634;2023-07-16T11:36:42;7.53;;;4.50;;
34711;SDS011;20941;42.408;25.634;2023-07-16T11:39:07;6.80;;;4.35;;
34711;SDS011;20941;42.408;25.634;2023-07-16T11:41:32;9.50;;;4.60;;
34711;SDS011;20941;42.408;25.634;2023-07-16T11:43:59;6.35;;;4.40;;
34711;SDS011;20941;42.408;25.634;2023-07-16T11:46:24;8.90;;;4.65;;
34711;SDS011;20941;42.408;25.634;2023-07-16T11:48:50;6.50;;;4.05;;
34711;SDS011;20941;42.408;25.634;2023-07-16T11:51:15;5.68;;;4.38;;
34711;SDS011;20941;42.408;25.634;2023-07-16T11:53:40;6.43;;;3.90;;
34711;SDS011;20941;42.408;25.634;2023-07-16T11:56:06;6.65;;;3.90;;
34711;SDS011;20941;42.408;25.634;2023-07-16T11:58:31;8.40;;;4.65;;
34711;SDS011;20941;42.408;25.634;2023-07-16T12:00:56;7.47;;;4.23;;
34711;SDS011;20941;42.408;25.634;2023-07-16T12:03:22;8.60;;;4.05;;
34711;SDS011;20941;42.408;25.634;2023-07-16T12:05:47;7.93;;;4.47;;
34711;SDS011;20941;42.408;25.634;2023-07-16T12:08:12;6.90;;;4.25;;
34711;SDS011;20941;42.408;25.634;2023-07-16T12:10:42;6.97;;;4.18;;
34711;SDS011;20941;42.408;25.634;2023-07-16T12:13:08;5.57;;;4.30;;
34711;SDS011;20941;42.408;25.634;2023-07-16T12:15:33;8.93;;;4.43;;
34711;SDS011;20941;42.408;25.634;2023-07-16T12:17:59;4.65;;;4.22;;
34711;SDS011;20941;42.408;25.634;2023-07-16T12:20:24;5.07;;;4.22;;
34711;SDS011;20941;42.408;25.634;2023-07-16T12:22:49;5.68;;;4.43;;
34711;SDS011;20941;42.408;25.634;2023-07-16T12:25:15;7.13;;;4.68;;
34711;SDS011;20941;42.408;25.634;2023-07-16T12:27:41;9.02;;;4.55;;
34711;SDS011;20941;42.408;25.634;2023-07-16T12:30:06;5.93;;;4.73;;
34711;SDS011;20941;42.408;25.634;2023-07-16T12:32:32;5.43;;;4.15;;
34711;SDS011;20941;42.408;25.634;2023-07-16T12:34:58;9.13;;;4.85;;
34711;SDS011;20941;42.408;25.634;2023-07-16T12:37:25;5.05;;;4.25;;
34711;SDS011;20941;42.408;25.634;2023-07-16T12:39:50;9.80;;;4.68;;
34711;SDS011;20941;42.408;25.634;2023-07-16T12:42:15;4.83;;;4.33;;
34711;SDS011;20941;42.408;25.634;2023-07-16T12:44:41;7.28;;;4.15;;
34711;SDS011;20941;42.408;25.634;2023-07-16T12:47:06;8.65;;;4.40;;
34711;SDS011;20941;42.408;25.634;2023-07-16T12:49:33;8.07;;;4.20;;
34711;SDS011;20941;42.408;25.634;2023-07-16T12:51:58;5.70;;;4.40;;
34711;SDS011;20941;42.408;25.634;2023-07-16T12:54:24;6.25;;;4.30;;
34711;SDS011;20941;42.408;25.634;2023-07-16T12:56:49;5.50;;;4.63;;
34711;SDS011;20941;42.408;25.634;2023-07-16T12:59:14;7.27;;;4.27;;
34711;SDS011;20941;42.408;25.634;2023-07-16T13:01:40;5.80;;;4.00;;
34711;SDS011;20941;42.408;25.634;2023-07-16T13:04:05;6.97;;;4.30;;
34711;SDS011;20941;42.408;25.634;2023-07-16T13:06:30;6.50;;;4.47;;
34711;SDS011;20941;42.408;25.634;2023-07-16T13:08:56;6.13;;;4.68;;
34711;SDS011;20941;42.408;25.634;2023-07-16T13:11:21;8.80;;;5.10;;
34711;SDS011;20941;42.408;25.634;2023-07-16T13:13:46;6.60;;;4.32;;
34711;SDS011;20941;42.408;25.634;2023-07-16T13:16:12;4.45;;;4.05;;
34711;SDS011;20941;42.408;25.634;2023-07-16T13:18:37;6.83;;;4.67;;
34711;SDS011;20941;42.408;25.634;2023-07-16T13:21:03;5.25;;;4.25;;
34711;SDS011;20941;42.408;25.634;2023-07-16T13:23:28;9.95;;;4.60;;
34711;SDS011;20941;42.408;25.634;2023-07-16T13:25:53;7.97;;;4.57;;
34711;SDS011;20941;42.408;25.634;2023-07-16T13:28:20;6.30;;;4.68;;
34711;SDS011;20941;42.408;25.634;2023-07-16T13:30:46;6.60;;;4.03;;
34711;SDS011;20941;42.408;25.634;2023-07-16T13:33:11;5.17;;;4.43;;
34711;SDS011;20941;42.408;25.634;2023-07-16T13:35:37;5.78;;;4.55;;
34711;SDS011;20941;42.408;25.634;2023-07-16T13:38:02;23.33;;;7.25;;
34711;SDS011;20941;42.408;25.634;2023-07-16T13:40:28;4.80;;;3.97;;
34711;SDS011;20941;42.408;25.634;2023-07-16T13:42:53;5.88;;;4.38;;
34711;SDS011;20941;42.408;25.634;2023-07-16T13:45:18;4.88;;;4.32;;
34711;SDS011;20941;42.408;25.634;2023-07-16T13:47:44;6.03;;;4.35;;
34711;SDS011;20941;42.408;25.634;2023-07-16T13:50:10;5.03;;;4.32;;
34711;SDS011;20941;42.408;25.634;2023-07-16T13:52:36;10.40;;;4.30;;
34711;SDS011;20941;42.408;25.634;2023-07-16T13:55:01;6.72;;;4.20;;
34711;SDS011;20941;42.408;25.634;2023-07-16T13:57:29;4.68;;;3.95;;
34711;SDS011;20941;42.408;25.634;2023-07-16T13:59:54;5.28;;;3.92;;
34711;SDS011;20941;42.408;25.634;2023-07-16T14:02:20;4.23;;;3.90;;
34711;SDS011;20941;42.408;25.634;2023-07-16T14:04:46;6.63;;;4.30;;
34711;SDS011;20941;42.408;25.634;2023-07-16T14:07:11;5.88;;;4.20;;
34711;SDS011;20941;42.408;25.634;2023-07-16T14:09:36;3.87;;;3.57;;
34711;SDS011;20941;42.408;25.634;2023-07-16T14:12:02;11.43;;;4.20;;
34711;SDS011;20941;42.408;25.634;2023-07-16T14:14:28;5.53;;;4.18;;
34711;SDS011;20941;42.408;25.634;2023-07-16T14:16:53;4.13;;;3.67;;
34711;SDS011;20941;42.408;25.634;2023-07-16T14:19:19;12.05;;;3.80;;
34711;SDS011;20941;42.408;25.634;2023-07-16T14:21:44;4.00;;;3.70;;
34711;SDS011;20941;42.408;25.634;2023-07-16T14:24:10;6.38;;;3.65;;
34711;SDS011;20941;42.408;25.634;2023-07-16T14:26:35;8.30;;;3.80;;
34711;SDS011;20941;42.408;25.634;2023-07-16T14:29:01;6.60;;;4.07;;
34711;SDS011;20941;42.408;25.634;2023-07-16T14:31:26;4.43;;;4.13;;
34711;SDS011;20941;42.408;25.634;2023-07-16T14:33:51;5.45;;;4.30;;
34711;SDS011;20941;42.408;25.634;2023-07-16T14:36:17;4.13;;;3.72;;
34711;SDS011;20941;42.408;25.634;2023-07-16T14:38:42;3.80;;;3.50;;
34711;SDS011;20941;42.408;25.634;2023-07-16T14:41:07;4.97;;;3.92;;
34711;SDS011;20941;42.408;25.634;2023-07-16T14:43:33;4.28;;;3.88;;
34711;SDS011;20941;42.408;25.634;2023-07-16T14:45:58;8.82;;;3.80;;
34711;SDS011;20941;42.408;25.634;2023-07-16T14:48:24;5.07;;;3.97;;
34711;SDS011;20941;42.408;25.634;2023-07-16T14:50:51;5.28;;;3.42;;
34711;SDS011;20941;42.408;25.634;2023-07-16T14:53:17;5.78;;;4.20;;
34711;SDS011;20941;42.408;25.634;2023-07-16T14:55:48;6.70;;;4.32;;
34711;SDS011;20941;42.408;25.634;2023-07-16T14:58:14;4.57;;;4.18;;
34711;SDS011;20941;42.408;25.634;2023-07-16T15:00:39;4.55;;;4.15;;
34711;SDS011;20941;42.408;25.634;2023-07-16T15:03:05;4.93;;;4.15;;
34711;SDS011;20941;42.408;25.634;2023-07-16T15:05:31;6.88;;;4.20;;
34711;SDS011;20941;42.408;25.634;2023-07-16T15:07:58;4.70;;;3.88;;
34711;SDS011;20941;42.408;25.634;2023-07-16T15:10:23;4.97;;;3.53;;
34711;SDS011;20941;42.408;25.634;2023-07-16T15:12:48;5.87;;;4.47;;
34711;SDS011;20941;42.408;25.634;2023-07-16T15:15:14;5.20;;;3.67;;
34711;SDS011;20941;42.408;25.634;2023-07-16T15:17:39;6.13;;;4.40;;
34711;SDS011;20941;42.408;25.634;2023-07-16T15:20:04;8.03;;;3.90;;
34711;SDS011;20941;42.408;25.634;2023-07-16T15:22:30;4.20;;;3.70;;
34711;SDS011;20941;42.408;25.634;2023-07-16T15:24:58;5.25;;;4.00;;
34711;SDS011;20941;42.408;25.634;2023-07-16T15:27:25;4.32;;;3.85;;
34711;SDS011;20941;42.408;25.634;2023-07-16T15:29:51;4.93;;;4.07;;
34711;SDS011;20941;42.408;25.634;2023-07-16T15:32:16;7.83;;;4.03;;
34711;SDS011;20941;42.408;25.634;2023-07-16T15:34:41;4.47;;;4.07;;
34711;SDS011;20941;42.408;25.634;2023-07-16T15:37:07;6.28;;;4.55;;
34711;SDS011;20941;42.408;25.634;2023-07-16T15:39:34;6.05;;;4.10;;
34711;SDS011;20941;42.408;25.634;2023-07-16T15:41:59;6.32;;;4.20;;
34711;SDS011;20941;42.408;25.634;2023-07-16T15:44:24;7.57;;;4.20;;
34711;SDS011;20941;42.408;25.634;2023-07-16T15:46:50;4.85;;;3.75;;
34711;SDS011;20941;42.408;25.634;2023-07-16T15:49:15;6.45;;;3.75;;
34711;SDS011;20941;42.408;25.634;2023-07-16T15:51:40;5.47;;;3.60;;
34711;SDS011;20941;42.408;25.634;2023-07-16T15:54:07;3.85;;;3.55;;
34711;SDS011;20941;42.408;25.634;2023-07-16T15:56:32;6.82;;;4.07;;
34711;SDS011;20941;42.408;25.634;2023-07-16T15:58:57;5.35;;;3.80;;
34711;SDS011;20941;42.408;25.634;2023-07-16T16:01:23;4.15;;;3.85;;
34711;SDS011;20941;42.408;25.634;2023-07-16T16:03:48;8.95;;;3.95;;
34711;SDS011;20941;42.408;25.634;2023-07-16T16:06:14;4.13;;;3.77;;